Brant — 5BBK2 — position and weather

sailwx.info

Track history (hours):
 
Tides and Currents Weather Stations Pressure Air Temp Water Temp Dewpoint Dewpoint Depression Visibility Wind Speed Wind Dir Waves Ship Positions

Brant

Last reported at 2018-Feb-12 02:41 UTC. Time now 2018-Feb-21 13:28 UTC.
Position N 27°47' W 015°09'.
Warning: this ship's position is 9 days out of date.

Length 185 m; draft 6.1 m.

Type: Cargo ship. MMSI: 212372000.

Date/timePositionNaut miles runAvg speedWind from/ knotsBaromVisibWave heightAir tempDewpointWater temp
2018-Feb-12 02:41N 27°47' W 015°09'213.6
2018-Feb-12 02:30N 27°49' W 015°08'713.5
2018-Feb-12 02:00N 27°56' W 015°06'713.4
2018-Feb-12 01:30N 28°02' W 015°04'5 9.7
2018-Feb-12 01:00N 28°05' W 015°08'612.2
2018-Feb-12 00:30N 28°06' W 015°15'611.9
2018-Feb-12 00:00N 28°07' W 015°22'2 4.9
2018-Feb-11 23:30N 28°06' W 015°24'0 0.1
2018-Feb-11 23:00N 28°06' W 015°24'0 0.2
2018-Feb-11 22:30N 28°06' W 015°24'0 0.1
2018-Feb-11 22:00N 28°06' W 015°24'0 0.1
2018-Feb-11 21:30N 28°06' W 015°24'0 0.3
2018-Feb-11 21:00N 28°06' W 015°24'1 2.0
2018-Feb-11 20:28N 28°07' W 015°25'0 0.0
2018-Feb-11 19:49N 28°07' W 015°25'0 0.1
2018-Feb-11 19:19N 28°07' W 015°25'0 0.1
2018-Feb-11 18:49N 28°07' W 015°25'0 0.0
2018-Feb-11 18:19N 28°07' W 015°25'0 0.0
2018-Feb-11 17:52N 28°07' W 015°25'0 0.0
2018-Feb-11 17:22N 28°07' W 015°25'0 0.0
2018-Feb-11 16:52N 28°07' W 015°25'0 0.0
2018-Feb-11 16:19N 28°07' W 015°25'0 0.0
2018-Feb-11 15:52N 28°07' W 015°25'0 0.0
2018-Feb-11 15:25N 28°07' W 015°25'0 0.0
2018-Feb-11 14:55N 28°07' W 015°25'0 0.0
2018-Feb-11 14:25N 28°07' W 015°25'0 0.0
2018-Feb-11 13:52N 28°07' W 015°25'0 0.1
2018-Feb-11 13:25N 28°07' W 015°25'0 0.0
2018-Feb-11 12:55N 28°07' W 015°25'0 0.0
2018-Feb-11 12:22N 28°07' W 015°25'0 0.1
2018-Feb-11 11:58N 28°07' W 015°25'0 0.1
2018-Feb-11 11:28N 28°07' W 015°25'0 0.0
2018-Feb-11 10:58N 28°07' W 015°25'0 0.1
2018-Feb-11 10:28N 28°07' W 015°25'1 3.0
2018-Feb-11 10:00N 28°06' W 015°24'0 0.5
2018-Feb-11 09:19N 28°06' W 015°24'0 0.1
2018-Feb-11 08:52N 28°06' W 015°24'0 0.1
2018-Feb-11 08:22N 28°06' W 015°24'0 0.1
2018-Feb-11 07:52N 28°06' W 015°24'0 0.1
2018-Feb-11 07:22N 28°06' W 015°24'0 0.1
2018-Feb-11 06:49N 28°06' W 015°24'0 0.2
2018-Feb-11 06:22N 28°06' W 015°24'0 0.0
2018-Feb-11 05:55N 28°06' W 015°24'0 0.0
2018-Feb-11 05:30N 28°06' W 015°24'1 2.9
2018-Feb-11 05:00N 28°07' W 015°23'2 4.9
2018-Feb-11 04:30N 28°06' W 015°20'510.2
2018-Feb-11 04:00N 28°05' W 015°14'611.1
2018-Feb-11 03:30N 28°06' W 015°08'611.5
2018-Feb-11 03:00N 28°09' W 015°03'611.9
2018-Feb-11 02:30N 28°13' W 014°58'713.5
2018-Feb-11 02:00N 28°20' W 014°56'713.4
2018-Feb-11 01:30N 28°26' W 014°54'713.5
2018-Feb-11 01:00N 28°33' W 014°53'713.5
2018-Feb-11 00:30N 28°40' W 014°51'  
Track history (hours):
 
Tides and Currents Weather Stations Pressure Air Temp Water Temp Dewpoint Dewpoint Depression Visibility Wind Speed Wind Dir Waves Ship Positions

Brant

Last reported at 2018-Feb-12 02:41 UTC. Time now 2018-Feb-21 13:28 UTC.
Position N 27°47' W 015°09'.
Warning: this ship's position is 9 days out of date.

Length 185 m; draft 6.1 m.

Type: Cargo ship. MMSI: 212372000.

Date/timePositionNaut miles runAvg speedWind from/ knotsBaromVisibWave heightAir tempDewpointWater temp
2018-Feb-12 02:41N 27°47' W 015°09'213.6
2018-Feb-12 02:30N 27°49' W 015°08'713.5
2018-Feb-12 02:00N 27°56' W 015°06'713.4
2018-Feb-12 01:30N 28°02' W 015°04'5 9.7
2018-Feb-12 01:00N 28°05' W 015°08'612.2
2018-Feb-12 00:30N 28°06' W 015°15'611.9
2018-Feb-12 00:00N 28°07' W 015°22'2 4.9
2018-Feb-11 23:30N 28°06' W 015°24'0 0.1
2018-Feb-11 23:00N 28°06' W 015°24'0 0.2
2018-Feb-11 22:30N 28°06' W 015°24'0 0.1
2018-Feb-11 22:00N 28°06' W 015°24'0 0.1
2018-Feb-11 21:30N 28°06' W 015°24'0 0.3
2018-Feb-11 21:00N 28°06' W 015°24'1 2.0
2018-Feb-11 20:28N 28°07' W 015°25'0 0.0
2018-Feb-11 19:49N 28°07' W 015°25'0 0.1
2018-Feb-11 19:19N 28°07' W 015°25'0 0.1
2018-Feb-11 18:49N 28°07' W 015°25'0 0.0
2018-Feb-11 18:19N 28°07' W 015°25'0 0.0
2018-Feb-11 17:52N 28°07' W 015°25'0 0.0
2018-Feb-11 17:22N 28°07' W 015°25'0 0.0
2018-Feb-11 16:52N 28°07' W 015°25'0 0.0
2018-Feb-11 16:19N 28°07' W 015°25'0 0.0
2018-Feb-11 15:52N 28°07' W 015°25'0 0.0
2018-Feb-11 15:25N 28°07' W 015°25'0 0.0
2018-Feb-11 14:55N 28°07' W 015°25'0 0.0
2018-Feb-11 14:25N 28°07' W 015°25'0 0.0
2018-Feb-11 13:52N 28°07' W 015°25'0 0.1
2018-Feb-11 13:25N 28°07' W 015°25'0 0.0
2018-Feb-11 12:55N 28°07' W 015°25'0 0.0
2018-Feb-11 12:22N 28°07' W 015°25'0 0.1
2018-Feb-11 11:58N 28°07' W 015°25'0 0.1
2018-Feb-11 11:28N 28°07' W 015°25'0 0.0
2018-Feb-11 10:58N 28°07' W 015°25'0 0.1
2018-Feb-11 10:28N 28°07' W 015°25'1 3.0
2018-Feb-11 10:00N 28°06' W 015°24'0 0.5
2018-Feb-11 09:19N 28°06' W 015°24'0 0.1
2018-Feb-11 08:52N 28°06' W 015°24'0 0.1
2018-Feb-11 08:22N 28°06' W 015°24'0 0.1
2018-Feb-11 07:52N 28°06' W 015°24'0 0.1
2018-Feb-11 07:22N 28°06' W 015°24'0 0.1
2018-Feb-11 06:49N 28°06' W 015°24'0 0.2
2018-Feb-11 06:22N 28°06' W 015°24'0 0.0
2018-Feb-11 05:55N 28°06' W 015°24'0 0.0
2018-Feb-11 05:30N 28°06' W 015°24'1 2.9
2018-Feb-11 05:00N 28°07' W 015°23'2 4.9
2018-Feb-11 04:30N 28°06' W 015°20'510.2
2018-Feb-11 04:00N 28°05' W 015°14'611.1
2018-Feb-11 03:30N 28°06' W 015°08'611.5
2018-Feb-11 03:00N 28°09' W 015°03'611.9
2018-Feb-11 02:30N 28°13' W 014°58'713.5
2018-Feb-11 02:00N 28°20' W 014°56'713.4
2018-Feb-11 01:30N 28°26' W 014°54'713.5
2018-Feb-11 01:00N 28°33' W 014°53'713.5
2018-Feb-11 00:30N 28°40' W 014°51'  

Dump ship's entire track history